sensor_id;sensor_type;location;lat;lon;timestamp;temperature;humidity
29501;DHT22;16450;50.288;10.966;2023-04-05T00:00:02;-1.50;94.20
29501;DHT22;16450;50.288;10.966;2023-04-05T00:03:09;-1.40;94.40
29501;DHT22;16450;50.288;10.966;2023-04-05T00:06:11;-1.60;94.30
29501;DHT22;16450;50.288;10.966;2023-04-05T00:09:13;-1.60;94.30
29501;DHT22;16450;50.288;10.966;2023-04-05T00:12:15;-1.60;94.30
29501;DHT22;16450;50.288;10.966;2023-04-05T00:15:18;-1.60;94.30
29501;DHT22;16450;50.288;10.966;2023-04-05T00:18:19;-1.70;94.40
29501;DHT22;16450;50.288;10.966;2023-04-05T00:21:25;-1.70;94.50
29501;DHT22;16450;50.288;10.966;2023-04-05T00:24:27;-1.70;94.50
29501;DHT22;16450;50.288;10.966;2023-04-05T00:27:30;-1.80;94.50
29501;DHT22;16450;50.288;10.966;2023-04-05T00:30:32;-1.80;94.50
29501;DHT22;16450;50.288;10.966;2023-04-05T00:33:34;-1.90;94.50
29501;DHT22;16450;50.288;10.966;2023-04-05T00:36:36;-1.90;94.70
29501;DHT22;16450;50.288;10.966;2023-04-05T00:39:38;-1.90;94.70
29501;DHT22;16450;50.288;10.966;2023-04-05T00:42:40;-1.90;94.70
29501;DHT22;16450;50.288;10.966;2023-04-05T00:45:42;-1.90;94.80
29501;DHT22;16450;50.288;10.966;2023-04-05T00:48:44;-2.00;94.80
29501;DHT22;16450;50.288;10.966;2023-04-05T00:51:47;-2.00;94.80
29501;DHT22;16450;50.288;10.966;2023-04-05T00:54:49;-2.00;94.90
29501;DHT22;16450;50.288;10.966;2023-04-05T00:57:53;-2.10;94.90
29501;DHT22;16450;50.288;10.966;2023-04-05T01:01:04;-2.10;94.90
29501;DHT22;16450;50.288;10.966;2023-04-05T01:04:09;-2.10;94.80
29501;DHT22;16450;50.288;10.966;2023-04-05T01:07:22;-2.10;94.90
29501;DHT22;16450;50.288;10.966;2023-04-05T01:10:38;-2.20;94.90
29501;DHT22;16450;50.288;10.966;2023-04-05T01:13:46;-2.20;94.90
29501;DHT22;16450;50.288;10.966;2023-04-05T01:16:48;-2.20;95.00
29501;DHT22;16450;50.288;10.966;2023-04-05T01:19:56;-2.30;95.00
29501;DHT22;16450;50.288;10.966;2023-04-05T01:23:33;-2.30;94.90
29501;DHT22;16450;50.288;10.966;2023-04-05T01:26:45;-2.40;94.60
29501;DHT22;16450;50.288;10.966;2023-04-05T01:30:06;-2.40;94.80
29501;DHT22;16450;50.288;10.966;2023-04-05T01:33:40;-2.40;94.90
29501;DHT22;16450;50.288;10.966;2023-04-05T01:36:49;-2.40;94.70
29501;DHT22;16450;50.288;10.966;2023-04-05T01:39:55;-2.50;94.90
29501;DHT22;16450;50.288;10.966;2023-04-05T01:43:00;-2.50;95.10
29501;DHT22;16450;50.288;10.966;2023-04-05T01:46:03;-2.50;95.10
29501;DHT22;16450;50.288;10.966;2023-04-05T01:49:04;-2.50;95.20
29501;DHT22;16450;50.288;10.966;2023-04-05T01:52:06;-2.60;95.20
29501;DHT22;16450;50.288;10.966;2023-04-05T01:55:08;-2.60;95.30
29501;DHT22;16450;50.288;10.966;2023-04-05T01:58:10;-2.60;95.30
29501;DHT22;16450;50.288;10.966;2023-04-05T02:01:12;-2.70;95.30
29501;DHT22;16450;50.288;10.966;2023-04-05T02:04:13;-2.70;95.30
29501;DHT22;16450;50.288;10.966;2023-04-05T02:07:15;-2.70;95.30
29501;DHT22;16450;50.288;10.966;2023-04-05T02:10:18;-2.70;95.30
29501;DHT22;16450;50.288;10.966;2023-04-05T02:13:20;-2.80;95.30
29501;DHT22;16450;50.288;10.966;2023-04-05T02:16:23;-2.80;95.30
29501;DHT22;16450;50.288;10.966;2023-04-05T02:19:26;-2.80;95.40
29501;DHT22;16450;50.288;10.966;2023-04-05T02:22:30;-2.80;95.40
29501;DHT22;16450;50.288;10.966;2023-04-05T02:25:32;-2.90;95.50
29501;DHT22;16450;50.288;10.966;2023-04-05T02:28:34;-2.90;95.50
29501;DHT22;16450;50.288;10.966;2023-04-05T02:31:36;-2.90;95.60
29501;DHT22;16450;50.288;10.966;2023-04-05T02:34:38;-2.90;95.60
29501;DHT22;16450;50.288;10.966;2023-04-05T02:37:42;-2.90;95.70
29501;DHT22;16450;50.288;10.966;2023-04-05T02:40:49;-3.00;95.60
29501;DHT22;16450;50.288;10.966;2023-04-05T02:43:52;-3.00;95.60
29501;DHT22;16450;50.288;10.966;2023-04-05T02:46:53;-3.00;95.70
29501;DHT22;16450;50.288;10.966;2023-04-05T02:49:55;-3.10;95.70
29501;DHT22;16450;50.288;10.966;2023-04-05T02:52:57;-3.10;95.70
29501;DHT22;16450;50.288;10.966;2023-04-05T02:55:59;-3.00;95.60
29501;DHT22;16450;50.288;10.966;2023-04-05T02:59:01;-3.10;95.50
29501;DHT22;16450;50.288;10.966;2023-04-05T03:02:06;-3.20;95.50
29501;DHT22;16450;50.288;10.966;2023-04-05T03:05:08;-3.20;95.40
29501;DHT22;16450;50.288;10.966;2023-04-05T03:08:10;-3.20;95.50
29501;DHT22;16450;50.288;10.966;2023-04-05T03:11:19;-3.30;95.40
29501;DHT22;16450;50.288;10.966;2023-04-05T03:14:21;-3.30;95.40
29501;DHT22;16450;50.288;10.966;2023-04-05T03:17:23;-3.30;95.40
29501;DHT22;16450;50.288;10.966;2023-04-05T03:20:24;-3.40;95.40
29501;DHT22;16450;50.288;10.966;2023-04-05T03:23:30;-3.40;96.00
29501;DHT22;16450;50.288;10.966;2023-04-05T03:26:32;-3.30;96.50
29501;DHT22;16450;50.288;10.966;2023-04-05T03:29:34;-3.30;96.90
29501;DHT22;16450;50.288;10.966;2023-04-05T03:32:36;-3.30;97.00
29501;DHT22;16450;50.288;10.966;2023-04-05T03:35:38;-3.30;96.80
29501;DHT22;16450;50.288;10.966;2023-04-05T03:38:43;-3.30;96.60
29501;DHT22;16450;50.288;10.966;2023-04-05T03:41:46;-3.30;96.30
29501;DHT22;16450;50.288;10.966;2023-04-05T03:44:51;-3.30;96.20
29501;DHT22;16450;50.288;10.966;2023-04-05T03:47:53;-3.40;95.90
29501;DHT22;16450;50.288;10.966;2023-04-05T03:50:55;-3.40;95.90
29501;DHT22;16450;50.288;10.966;2023-04-05T03:53:58;-3.40;95.90
29501;DHT22;16450;50.288;10.966;2023-04-05T03:56:59;-3.50;95.80
29501;DHT22;16450;50.288;10.966;2023-04-05T04:00:02;-3.50;95.80
29501;DHT22;16450;50.288;10.966;2023-04-05T04:03:15;-3.60;95.70
29501;DHT22;16450;50.288;10.966;2023-04-05T04:06:16;-3.60;95.60
29501;DHT22;16450;50.288;10.966;2023-04-05T04:09:20;-3.60;95.60
29501;DHT22;16450;50.288;10.966;2023-04-05T04:12:23;-3.70;95.60
29501;DHT22;16450;50.288;10.966;2023-04-05T04:15:25;-3.70;95.60
29501;DHT22;16450;50.288;10.966;2023-04-05T04:18:27;-3.70;95.70
29501;DHT22;16450;50.288;10.966;2023-04-05T04:21:29;-3.80;95.80
29501;DHT22;16450;50.288;10.966;2023-04-05T04:24:33;-3.80;95.90
29501;DHT22;16450;50.288;10.966;2023-04-05T04:27:39;-3.80;96.10
29501;DHT22;16450;50.288;10.966;2023-04-05T04:30:42;-3.80;96.20
29501;DHT22;16450;50.288;10.966;2023-04-05T04:33:45;-3.80;96.50
29501;DHT22;16450;50.288;10.966;2023-04-05T04:36:47;-3.70;96.80
29501;DHT22;16450;50.288;10.966;2023-04-05T04:40:02;-3.70;96.90
29501;DHT22;16450;50.288;10.966;2023-04-05T04:43:08;-3.70;97.00
29501;DHT22;16450;50.288;10.966;2023-04-05T04:46:11;-3.70;97.10
29501;DHT22;16450;50.288;10.966;2023-04-05T04:49:15;-3.60;97.30
29501;DHT22;16450;50.288;10.966;2023-04-05T04:52:17;-3.60;97.30
29501;DHT22;16450;50.288;10.966;2023-04-05T04:55:20;-3.50;97.40
29501;DHT22;16450;50.288;10.966;2023-04-05T04:58:26;-3.50;97.40
29501;DHT22;16450;50.288;10.966;2023-04-05T05:01:28;-3.50;97.40
29501;DHT22;16450;50.288;10.966;2023-04-05T05:04:30;-3.40;97.80
29501;DHT22;16450;50.288;10.966;2023-04-05T05:07:34;-3.40;97.40
29501;DHT22;16450;50.288;10.966;2023-04-05T05:10:37;-3.40;97.40
29501;DHT22;16450;50.288;10.966;2023-04-05T05:13:39;-3.40;97.40
29501;DHT22;16450;50.288;10.966;2023-04-05T05:16:41;-3.30;97.40
29501;DHT22;16450;50.288;10.966;2023-04-05T05:19:44;-3.40;97.30
29501;DHT22;16450;50.288;10.966;2023-04-05T05:22:46;-3.40;97.30
29501;DHT22;16450;50.288;10.966;2023-04-05T05:25:48;-3.40;97.40
29501;DHT22;16450;50.288;10.966;2023-04-05T05:28:49;-3.30;97.50
29501;DHT22;16450;50.288;10.966;2023-04-05T05:31:51;-3.40;97.60
29501;DHT22;16450;50.288;10.966;2023-04-05T05:34:53;-3.30;97.80
29501;DHT22;16450;50.288;10.966;2023-04-05T05:37:55;-3.20;98.00
29501;DHT22;16450;50.288;10.966;2023-04-05T05:40:58;-3.20;98.20
29501;DHT22;16450;50.288;10.966;2023-04-05T05:43:59;-3.10;98.50
29501;DHT22;16450;50.288;10.966;2023-04-05T05:47:02;-3.00;98.80
29501;DHT22;16450;50.288;10.966;2023-04-05T05:50:06;-2.70;99.10
29501;DHT22;16450;50.288;10.966;2023-04-05T05:53:12;-2.80;99.20
29501;DHT22;16450;50.288;10.966;2023-04-05T05:56:14;-2.70;99.40
29501;DHT22;16450;50.288;10.966;2023-04-05T05:59:16;-2.60;99.60
29501;DHT22;16450;50.288;10.966;2023-04-05T06:02:18;-2.40;99.70
29501;DHT22;16450;50.288;10.966;2023-04-05T06:05:20;-2.30;99.80
29501;DHT22;16450;50.288;10.966;2023-04-05T06:08:22;-2.10;99.90
29501;DHT22;16450;50.288;10.966;2023-04-05T06:11:24;-2.00;99.90
29501;DHT22;16450;50.288;10.966;2023-04-05T06:14:27;-1.90;99.90
29501;DHT22;16450;50.288;10.966;2023-04-05T06:17:30;-1.70;99.90
29501;DHT22;16450;50.288;10.966;2023-04-05T06:20:32;-1.60;99.90
29501;DHT22;16450;50.288;10.966;2023-04-05T06:23:34;-1.50;99.90
29501;DHT22;16450;50.288;10.966;2023-04-05T06:26:36;-1.40;99.90
29501;DHT22;16450;50.288;10.966;2023-04-05T06:29:38;-1.30;99.90
29501;DHT22;16450;50.288;10.966;2023-04-05T06:32:39;-1.30;99.90
29501;DHT22;16450;50.288;10.966;2023-04-05T06:35:41;-1.20;99.90
29501;DHT22;16450;50.288;10.966;2023-04-05T06:38:43;-1.00;99.90
29501;DHT22;16450;50.288;10.966;2023-04-05T06:41:45;-0.80;99.90
29501;DHT22;16450;50.288;10.966;2023-04-05T06:44:47;-0.70;99.90
29501;DHT22;16450;50.288;10.966;2023-04-05T06:47:49;-0.60;99.90
29501;DHT22;16450;50.288;10.966;2023-04-05T06:50:58;-0.60;99.90
29501;DHT22;16450;50.288;10.966;2023-04-05T06:54:00;-0.50;99.40
29501;DHT22;16450;50.288;10.966;2023-04-05T06:57:02;-0.40;99.80
29501;DHT22;16450;50.288;10.966;2023-04-05T07:00:04;-0.40;99.80
29501;DHT22;16450;50.288;10.966;2023-04-05T07:03:11;-0.40;99.80
29501;DHT22;16450;50.288;10.966;2023-04-05T07:06:13;-0.30;99.90
29501;DHT22;16450;50.288;10.966;2023-04-05T07:09:16;-0.30;99.90
29501;DHT22;16450;50.288;10.966;2023-04-05T07:12:18;-0.20;99.90
29501;DHT22;16450;50.288;10.966;2023-04-05T07:15:19;-0.10;99.90
29501;DHT22;16450;50.288;10.966;2023-04-05T07:18:21;0.00;99.90
29501;DHT22;16450;50.288;10.966;2023-04-05T07:21:23;0.00;99.90
29501;DHT22;16450;50.288;10.966;2023-04-05T07:24:25;0.10;99.90
29501;DHT22;16450;50.288;10.966;2023-04-05T07:27:28;0.20;99.90
29501;DHT22;16450;50.288;10.966;2023-04-05T07:30:30;0.30;99.90
29501;DHT22;16450;50.288;10.966;2023-04-05T07:33:33;0.40;99.90
29501;DHT22;16450;50.288;10.966;2023-04-05T07:36:34;0.50;99.90
29501;DHT22;16450;50.288;10.966;2023-04-05T07:39:50;0.70;99.90
29501;DHT22;16450;50.288;10.966;2023-04-05T07:42:52;0.80;99.90
29501;DHT22;16450;50.288;10.966;2023-04-05T07:46:01;0.90;99.90
29501;DHT22;16450;50.288;10.966;2023-04-05T07:49:03;1.00;99.80
29501;DHT22;16450;50.288;10.966;2023-04-05T07:52:05;1.20;99.90
29501;DHT22;16450;50.288;10.966;2023-04-05T07:55:08;1.30;99.90
29501;DHT22;16450;50.288;10.966;2023-04-05T07:58:10;1.50;99.90
29501;DHT22;16450;50.288;10.966;2023-04-05T08:01:12;1.70;99.90
29501;DHT22;16450;50.288;10.966;2023-04-05T08:04:14;1.90;99.90
29501;DHT22;16450;50.288;10.966;2023-04-05T08:07:16;2.00;99.90
29501;DHT22;16450;50.288;10.966;2023-04-05T08:10:18;2.20;99.90
29501;DHT22;16450;50.288;10.966;2023-04-05T08:13:20;2.40;99.90
29501;DHT22;16450;50.288;10.966;2023-04-05T08:16:21;2.60;99.90
29501;DHT22;16450;50.288;10.966;2023-04-05T08:19:23;2.90;99.90
29501;DHT22;16450;50.288;10.966;2023-04-05T08:22:28;3.20;99.90
29501;DHT22;16450;50.288;10.966;2023-04-05T08:25:30;3.60;99.90
29501;DHT22;16450;50.288;10.966;2023-04-05T08:28:33;4.10;99.90
29501;DHT22;16450;50.288;10.966;2023-04-05T08:31:35;4.60;99.90
29501;DHT22;16450;50.288;10.966;2023-04-05T08:34:37;5.10;99.90
29501;DHT22;16450;50.288;10.966;2023-04-05T08:37:39;5.60;99.90
29501;DHT22;16450;50.288;10.966;2023-04-05T08:40:43;6.10;99.90
29501;DHT22;16450;50.288;10.966;2023-04-05T08:44:00;6.60;99.90
29501;DHT22;16450;50.288;10.966;2023-04-05T08:47:03;7.10;97.40
29501;DHT22;16450;50.288;10.966;2023-04-05T08:50:08;7.50;99.40
29501;DHT22;16450;50.288;10.966;2023-04-05T08:53:10;7.90;98.80
29501;DHT22;16450;50.288;10.966;2023-04-05T08:56:15;8.20;97.90
29501;DHT22;16450;50.288;10.966;2023-04-05T08:59:19;8.40;95.00
29501;DHT22;16450;50.288;10.966;2023-04-05T09:02:22;8.30;93.90
29501;DHT22;16450;50.288;10.966;2023-04-05T09:05:25;8.10;92.50
29501;DHT22;16450;50.288;10.966;2023-04-05T09:08:27;7.80;92.70
29501;DHT22;16450;50.288;10.966;2023-04-05T09:11:29;7.60;94.60
29501;DHT22;16450;50.288;10.966;2023-04-05T09:14:36;7.50;95.40
29501;DHT22;16450;50.288;10.966;2023-04-05T09:17:40;7.40;93.60
29501;DHT22;16450;50.288;10.966;2023-04-05T09:20:42;7.40;93.70
29501;DHT22;16450;50.288;10.966;2023-04-05T09:23:51;7.20;93.80
29501;DHT22;16450;50.288;10.966;2023-04-05T09:27:04;7.00;91.60
29501;DHT22;16450;50.288;10.966;2023-04-05T09:30:20;6.80;91.20
29501;DHT22;16450;50.288;10.966;2023-04-05T09:33:23;6.50;90.80
29501;DHT22;16450;50.288;10.966;2023-04-05T09:36:25;6.30;92.50
29501;DHT22;16450;50.288;10.966;2023-04-05T09:39:31;6.10;93.30
29501;DHT22;16450;50.288;10.966;2023-04-05T09:42:43;5.90;92.80
29501;DHT22;16450;50.288;10.966;2023-04-05T09:45:46;5.70;92.30
29501;DHT22;16450;50.288;10.966;2023-04-05T09:48:49;5.60;95.20
29501;DHT22;16450;50.288;10.966;2023-04-05T09:51:50;5.60;95.00
29501;DHT22;16450;50.288;10.966;2023-04-05T09:54:57;5.60;95.20
29501;DHT22;16450;50.288;10.966;2023-04-05T09:58:00;5.50;95.70
29501;DHT22;16450;50.288;10.966;2023-04-05T10:01:03;5.50;96.00
29501;DHT22;16450;50.288;10.966;2023-04-05T10:04:20;5.70;95.70
29501;DHT22;16450;50.288;10.966;2023-04-05T10:07:25;5.60;94.60
29501;DHT22;16450;50.288;10.966;2023-04-05T10:10:28;5.60;95.50
29501;DHT22;16450;50.288;10.966;2023-04-05T10:13:33;5.60;95.00
29501;DHT22;16450;50.288;10.966;2023-04-05T10:16:46;5.60;94.60
29501;DHT22;16450;50.288;10.966;2023-04-05T10:23:21;5.70;94.90
29501;DHT22;16450;50.288;10.966;2023-04-05T10:30:06;6.10;95.90
29501;DHT22;16450;50.288;10.966;2023-04-05T10:33:19;6.30;95.50
29501;DHT22;16450;50.288;10.966;2023-04-05T10:37:00;6.50;97.50
29501;DHT22;16450;50.288;10.966;2023-04-05T10:40:03;6.80;94.40
29501;DHT22;16450;50.288;10.966;2023-04-05T10:43:15;7.00;97.90
29501;DHT22;16450;50.288;10.966;2023-04-05T10:46:19;7.20;96.20
29501;DHT22;16450;50.288;10.966;2023-04-05T10:49:31;7.40;97.00
29501;DHT22;16450;50.288;10.966;2023-04-05T10:52:35;7.60;95.90
29501;DHT22;16450;50.288;10.966;2023-04-05T10:55:38;7.70;96.80
29501;DHT22;16450;50.288;10.966;2023-04-05T10:58:40;7.90;97.30
29501;DHT22;16450;50.288;10.966;2023-04-05T11:01:45;8.00;96.30
29501;DHT22;16450;50.288;10.966;2023-04-05T11:04:54;8.10;95.30
29501;DHT22;16450;50.288;10.966;2023-04-05T11:08:06;8.30;94.00
29501;DHT22;16450;50.288;10.966;2023-04-05T11:11:08;8.30;93.60
29501;DHT22;16450;50.288;10.966;2023-04-05T11:17:25;8.40;93.60
29501;DHT22;16450;50.288;10.966;2023-04-05T11:24:00;8.50;92.70
29501;DHT22;16450;50.288;10.966;2023-04-05T11:27:08;8.60;92.90
29501;DHT22;16450;50.288;10.966;2023-04-05T11:30:10;8.70;93.20
29501;DHT22;16450;50.288;10.966;2023-04-05T11:36:43;8.90;91.50
29501;DHT22;16450;50.288;10.966;2023-04-05T11:39:48;9.00;92.20
29501;DHT22;16450;50.288;10.966;2023-04-05T11:43:10;8.80;94.90
29501;DHT22;16450;50.288;10.966;2023-04-05T11:46:13;8.90;94.50
29501;DHT22;16450;50.288;10.966;2023-04-05T11:49:22;8.80;94.30
29501;DHT22;16450;50.288;10.966;2023-04-05T11:52:24;8.90;94.20
29501;DHT22;16450;50.288;10.966;2023-04-05T11:55:26;8.90;94.70
29501;DHT22;16450;50.288;10.966;2023-04-05T11:58:28;8.90;94.50
29501;DHT22;16450;50.288;10.966;2023-04-05T12:01:30;8.80;94.50
29501;DHT22;16450;50.288;10.966;2023-04-05T12:04:33;8.80;94.30
29501;DHT22;16450;50.288;10.966;2023-04-05T12:07:35;8.80;94.30
29501;DHT22;16450;50.288;10.966;2023-04-05T12:10:37;8.70;94.00
29501;DHT22;16450;50.288;10.966;2023-04-05T12:13:39;8.70;94.30
29501;DHT22;16450;50.288;10.966;2023-04-05T12:16:48;8.70;94.50
29501;DHT22;16450;50.288;10.966;2023-04-05T12:19:50;8.60;92.00
29501;DHT22;16450;50.288;10.966;2023-04-05T12:22:54;8.70;94.50
29501;DHT22;16450;50.288;10.966;2023-04-05T12:25:56;8.80;94.40
29501;DHT22;16450;50.288;10.966;2023-04-05T12:28:59;8.80;95.00
29501;DHT22;16450;50.288;10.966;2023-04-05T12:32:03;8.80;94.70
29501;DHT22;16450;50.288;10.966;2023-04-05T12:38:25;9.00;94.60
29501;DHT22;16450;50.288;10.966;2023-04-05T12:41:29;9.10;95.00
29501;DHT22;16450;50.288;10.966;2023-04-05T12:44:31;9.20;94.90
29501;DHT22;16450;50.288;10.966;2023-04-05T12:47:34;9.20;95.40
29501;DHT22;16450;50.288;10.966;2023-04-05T12:50:44;9.30;95.00
29501;DHT22;16450;50.288;10.966;2023-04-05T12:53:46;9.40;93.30
29501;DHT22;16450;50.288;10.966;2023-04-05T12:56:52;9.40;95.10
29501;DHT22;16450;50.288;10.966;2023-04-05T12:59:57;9.50;92.70
29501;DHT22;16450;50.288;10.966;2023-04-05T13:02:59;9.50;94.60
29501;DHT22;16450;50.288;10.966;2023-04-05T13:06:01;9.50;94.60
29501;DHT22;16450;50.288;10.966;2023-04-05T13:09:03;9.50;93.70
29501;DHT22;16450;50.288;10.966;2023-04-05T13:12:05;9.60;93.60
29501;DHT22;16450;50.288;10.966;2023-04-05T13:15:07;9.50;92.60
29501;DHT22;16450;50.288;10.966;2023-04-05T13:18:09;9.40;92.60
29501;DHT22;16450;50.288;10.966;2023-04-05T13:21:15;9.30;93.30
29501;DHT22;16450;50.288;10.966;2023-04-05T13:24:16;9.20;93.40
29501;DHT22;16450;50.288;10.966;2023-04-05T13:27:19;9.30;94.20
29501;DHT22;16450;50.288;10.966;2023-04-05T13:30:22;9.30;93.70
29501;DHT22;16450;50.288;10.966;2023-04-05T13:33:24;9.30;93.60
29501;DHT22;16450;50.288;10.966;2023-04-05T13:36:26;9.40;93.90
29501;DHT22;16450;50.288;10.966;2023-04-05T13:39:28;9.40;93.80
29501;DHT22;16450;50.288;10.966;2023-04-05T13:42:30;9.40;93.60
29501;DHT22;16450;50.288;10.966;2023-04-05T13:45:32;9.50;93.80
29501;DHT22;16450;50.288;10.966;2023-04-05T13:48:34;9.60;94.20
29501;DHT22;16450;50.288;10.966;2023-04-05T13:51:35;9.60;94.30
29501;DHT22;16450;50.288;10.966;2023-04-05T13:54:41;9.70;94.40
29501;DHT22;16450;50.288;10.966;2023-04-05T13:57:43;9.80;94.00
29501;DHT22;16450;50.288;10.966;2023-04-05T14:00:45;9.80;94.00
29501;DHT22;16450;50.288;10.966;2023-04-05T14:03:48;9.90;94.00
29501;DHT22;16450;50.288;10.966;2023-04-05T14:06:50;10.00;93.30
29501;DHT22;16450;50.288;10.966;2023-04-05T14:09:52;9.90;92.80
29501;DHT22;16450;50.288;10.966;2023-04-05T14:12:54;9.90;92.80
29501;DHT22;16450;50.288;10.966;2023-04-05T14:15:55;9.90;92.90
29501;DHT22;16450;50.288;10.966;2023-04-05T14:18:58;9.90;93.20
29501;DHT22;16450;50.288;10.966;2023-04-05T14:21:59;9.90;93.20
29501;DHT22;16450;50.288;10.966;2023-04-05T14:25:03;9.90;93.00
29501;DHT22;16450;50.288;10.966;2023-04-05T14:28:05;9.90;92.90
29501;DHT22;16450;50.288;10.966;2023-04-05T14:31:07;9.90;93.00
29501;DHT22;16450;50.288;10.966;2023-04-05T14:34:08;9.90;92.80
29501;DHT22;16450;50.288;10.966;2023-04-05T14:37:10;10.00;92.90
29501;DHT22;16450;50.288;10.966;2023-04-05T14:40:13;10.00;93.00
29501;DHT22;16450;50.288;10.966;2023-04-05T14:43:14;10.00;92.70
29501;DHT22;16450;50.288;10.966;2023-04-05T14:46:17;10.00;92.50
29501;DHT22;16450;50.288;10.966;2023-04-05T14:49:19;10.00;92.00
29501;DHT22;16450;50.288;10.966;2023-04-05T14:52:21;10.00;92.30
29501;DHT22;16450;50.288;10.966;2023-04-05T14:55:22;10.00;92.40
29501;DHT22;16450;50.288;10.966;2023-04-05T14:58:24;10.00;92.60
29501;DHT22;16450;50.288;10.966;2023-04-05T15:01:26;10.00;92.80
29501;DHT22;16450;50.288;10.966;2023-04-05T15:04:28;10.00;92.70
29501;DHT22;16450;50.288;10.966;2023-04-05T15:07:30;10.00;92.60
29501;DHT22;16450;50.288;10.966;2023-04-05T15:10:32;10.00;92.50
29501;DHT22;16450;50.288;10.966;2023-04-05T15:13:35;10.00;92.00
29501;DHT22;16450;50.288;10.966;2023-04-05T15:16:37;10.00;92.10
29501;DHT22;16450;50.288;10.966;2023-04-05T15:19:39;10.00;92.60
29501;DHT22;16450;50.288;10.966;2023-04-05T15:22:41;10.00;92.00
29501;DHT22;16450;50.288;10.966;2023-04-05T15:25:43;10.00;92.20
29501;DHT22;16450;50.288;10.966;2023-04-05T15:28:45;10.00;91.90
29501;DHT22;16450;50.288;10.966;2023-04-05T15:31:47;10.10;92.00
29501;DHT22;16450;50.288;10.966;2023-04-05T15:34:49;10.00;91.60
29501;DHT22;16450;50.288;10.966;2023-04-05T15:37:51;10.00;91.20
29501;DHT22;16450;50.288;10.966;2023-04-05T15:40:52;10.00;91.30
29501;DHT22;16450;50.288;10.966;2023-04-05T15:43:55;10.00;91.40
29501;DHT22;16450;50.288;10.966;2023-04-05T15:46:56;10.00;91.30
29501;DHT22;16450;50.288;10.966;2023-04-05T15:49:58;10.00;91.20
29501;DHT22;16450;50.288;10.966;2023-04-05T15:53:00;10.00;90.80
29501;DHT22;16450;50.288;10.966;2023-04-05T15:56:02;10.00;90.50
29501;DHT22;16450;50.288;10.966;2023-04-05T15:59:04;10.00;90.40
29501;DHT22;16450;50.288;10.966;2023-04-05T16:02:07;9.90;90.30
29501;DHT22;16450;50.288;10.966;2023-04-05T16:05:10;9.90;90.00
29501;DHT22;16450;50.288;10.966;2023-04-05T16:08:12;9.90;89.30
29501;DHT22;16450;50.288;10.966;2023-04-05T16:11:14;9.90;88.20
29501;DHT22;16450;50.288;10.966;2023-04-05T16:14:16;9.90;88.00
29501;DHT22;16450;50.288;10.966;2023-04-05T16:17:17;9.90;87.10
29501;DHT22;16450;50.288;10.966;2023-04-05T16:20:19;9.80;86.20
29501;DHT22;16450;50.288;10.966;2023-04-05T16:23:22;9.80;85.60
29501;DHT22;16450;50.288;10.966;2023-04-05T16:26:24;9.80;85.20
29501;DHT22;16450;50.288;10.966;2023-04-05T16:29:26;9.80;84.80
29501;DHT22;16450;50.288;10.966;2023-04-05T16:32:29;9.80;84.20
29501;DHT22;16450;50.288;10.966;2023-04-05T16:35:31;9.70;83.70
29501;DHT22;16450;50.288;10.966;2023-04-05T16:38:33;9.70;83.30
29501;DHT22;16450;50.288;10.966;2023-04-05T16:41:34;9.60;83.10
29501;DHT22;16450;50.288;10.966;2023-04-05T16:44:36;9.60;82.80
29501;DHT22;16450;50.288;10.966;2023-04-05T16:47:38;9.60;82.50
29501;DHT22;16450;50.288;10.966;2023-04-05T16:50:40;9.60;82.10
29501;DHT22;16450;50.288;10.966;2023-04-05T16:53:43;9.50;81.30
29501;DHT22;16450;50.288;10.966;2023-04-05T16:56:45;9.50;80.60
29501;DHT22;16450;50.288;10.966;2023-04-05T16:59:46;9.40;80.80
29501;DHT22;16450;50.288;10.966;2023-04-05T17:02:49;9.40;80.30
29501;DHT22;16450;50.288;10.966;2023-04-05T17:05:51;9.30;79.80
29501;DHT22;16450;50.288;10.966;2023-04-05T17:08:53;9.30;80.10
29501;DHT22;16450;50.288;10.966;2023-04-05T17:11:55;9.20;79.60
29501;DHT22;16450;50.288;10.966;2023-04-05T17:14:57;9.20;79.30
29501;DHT22;16450;50.288;10.966;2023-04-05T17:17:59;9.10;79.00
29501;DHT22;16450;50.288;10.966;2023-04-05T17:21:01;9.10;78.90
29501;DHT22;16450;50.288;10.966;2023-04-05T17:24:03;9.00;78.80
29501;DHT22;16450;50.288;10.966;2023-04-05T17:27:05;8.90;78.60
29501;DHT22;16450;50.288;10.966;2023-04-05T17:30:07;8.80;78.20
29501;DHT22;16450;50.288;10.966;2023-04-05T17:33:09;8.70;77.30
29501;DHT22;16450;50.288;10.966;2023-04-05T17:36:11;8.60;77.40
29501;DHT22;16450;50.288;10.966;2023-04-05T17:39:14;8.50;77.30
29501;DHT22;16450;50.288;10.966;2023-04-05T17:42:16;8.50;76.40
29501;DHT22;16450;50.288;10.966;2023-04-05T17:45:19;8.40;77.10
29501;DHT22;16450;50.288;10.966;2023-04-05T17:48:21;8.30;77.00
29501;DHT22;16450;50.288;10.966;2023-04-05T17:51:23;8.20;77.00
29501;DHT22;16450;50.288;10.966;2023-04-05T17:54:25;8.10;77.10
29501;DHT22;16450;50.288;10.966;2023-04-05T17:57:27;8.00;76.80
29501;DHT22;16450;50.288;10.966;2023-04-05T18:00:29;7.90;78.00
29501;DHT22;16450;50.288;10.966;2023-04-05T18:03:31;7.90;78.10
29501;DHT22;16450;50.288;10.966;2023-04-05T18:06:33;7.80;77.90
29501;DHT22;16450;50.288;10.966;2023-04-05T18:09:35;7.70;77.80
29501;DHT22;16450;50.288;10.966;2023-04-05T18:12:39;7.60;77.90
29501;DHT22;16450;50.288;10.966;2023-04-05T18:15:41;7.50;78.00
29501;DHT22;16450;50.288;10.966;2023-04-05T18:18:43;7.40;78.30
29501;DHT22;16450;50.288;10.966;2023-04-05T18:21:45;7.40;78.30
29501;DHT22;16450;50.288;10.966;2023-04-05T18:24:47;7.30;78.60
29501;DHT22;16450;50.288;10.966;2023-04-05T18:27:48;7.20;78.50
29501;DHT22;16450;50.288;10.966;2023-04-05T18:30:50;7.10;78.50
29501;DHT22;16450;50.288;10.966;2023-04-05T18:33:53;7.00;78.50
29501;DHT22;16450;50.288;10.966;2023-04-05T18:36:56;6.90;78.30
29501;DHT22;16450;50.288;10.966;2023-04-05T18:39:58;6.80;78.20
29501;DHT22;16450;50.288;10.966;2023-04-05T18:43:00;6.70;78.20
29501;DHT22;16450;50.288;10.966;2023-04-05T18:46:02;6.60;78.30
29501;DHT22;16450;50.288;10.966;2023-04-05T18:49:04;6.50;78.50
29501;DHT22;16450;50.288;10.966;2023-04-05T18:52:07;6.40;78.40
29501;DHT22;16450;50.288;10.966;2023-04-05T18:55:09;6.30;78.50
29501;DHT22;16450;50.288;10.966;2023-04-05T18:58:11;6.20;78.70
29501;DHT22;16450;50.288;10.966;2023-04-05T19:01:13;6.10;78.90
29501;DHT22;16450;50.288;10.966;2023-04-05T19:04:16;6.00;79.10
29501;DHT22;16450;50.288;10.966;2023-04-05T19:07:18;5.90;79.00
29501;DHT22;16450;50.288;10.966;2023-04-05T19:10:20;5.90;79.20
29501;DHT22;16450;50.288;10.966;2023-04-05T19:13:22;5.80;79.70
29501;DHT22;16450;50.288;10.966;2023-04-05T19:16:24;5.60;79.70
29501;DHT22;16450;50.288;10.966;2023-04-05T19:19:27;5.50;79.80
29501;DHT22;16450;50.288;10.966;2023-04-05T19:22:29;5.50;79.70
29501;DHT22;16450;50.288;10.966;2023-04-05T19:25:31;5.40;80.10
29501;DHT22;16450;50.288;10.966;2023-04-05T19:28:33;5.30;80.40
29501;DHT22;16450;50.288;10.966;2023-04-05T19:31:35;5.20;80.50